IT-0050 weather

CLOSED Cossato
Cossato (BI), Piedmont, Italy

Public forecast

Using degrees Celsius for public forecast. Weather courtesy of forecast.io.

METAR (pilot weather report)

Closest report is Cameri Air Base [MIL], 20.9 nm (38.7 km) ESE. Retrieved 2019/07/22 17:55 UTC (2 hours ago):

LIMN 221755Z VRB02KT CAVOK 31/22 Q1020 RMK FEW FEW200 VIS MIN 9999 BLK BLU

TAF (pilot weather forecast)

Forecast is more than 12 hours old.

Closest forecast is Cameri Air Base [MIL], 20.9 nm (38.7 km) ESE. Retrieved 2010/11/18 12:24 UTC (9 years ago):

TAF TAF LIMN 181100Z 1812/1921 VRB03KT 1500 RA BR BKN030